sensor_id;sensor_type;location;lat;lon;timestamp;pressure;altitude;pressure_sealevel;temperature;humidity
19005;BME280;9635;52.078;8.648;2023-05-12T00:04:34;100429.91;;;12.05;90.11
19005;BME280;9635;52.078;8.648;2023-05-12T00:09:38;100433.16;;;12.08;90.43
19005;BME280;9635;52.078;8.648;2023-05-12T00:14:42;100444.13;;;12.16;90.46
19005;BME280;9635;52.078;8.648;2023-05-12T00:19:45;100445.97;;;12.16;90.36
19005;BME280;9635;52.078;8.648;2023-05-12T00:24:50;100455.16;;;12.13;89.90
19005;BME280;9635;52.078;8.648;2023-05-12T00:29:53;100464.91;;;12.05;90.19
19005;BME280;9635;52.078;8.648;2023-05-12T00:34:55;100459.78;;;12.02;89.86
19005;BME280;9635;52.078;8.648;2023-05-12T00:40:00;100470.66;;;12.00;89.86
19005;BME280;9635;52.078;8.648;2023-05-12T00:45:04;100470.22;;;11.95;89.99
19005;BME280;9635;52.078;8.648;2023-05-12T00:50:08;100469.63;;;11.91;89.57
19005;BME280;9635;52.078;8.648;2023-05-12T00:55:12;100465.63;;;11.86;89.78
19005;BME280;9635;52.078;8.648;2023-05-12T01:00:15;100459.66;;;11.82;89.76
19005;BME280;9635;52.078;8.648;2023-05-12T01:05:21;100452.97;;;11.77;89.61
19005;BME280;9635;52.078;8.648;2023-05-12T01:10:25;100454.06;;;11.74;89.50
19005;BME280;9635;52.078;8.648;2023-05-12T01:15:30;100450.19;;;11.67;89.46
19005;BME280;9635;52.078;8.648;2023-05-12T01:20:33;100458.78;;;11.61;89.21
19005;BME280;9635;52.078;8.648;2023-05-12T01:25:40;100462.69;;;11.57;89.34
19005;BME280;9635;52.078;8.648;2023-05-12T01:30:44;100456.84;;;11.52;89.31
19005;BME280;9635;52.078;8.648;2023-05-12T01:35:47;100462.63;;;11.47;89.22
19005;BME280;9635;52.078;8.648;2023-05-12T01:40:52;100464.69;;;11.43;89.44
19005;BME280;9635;52.078;8.648;2023-05-12T01:45:56;100466.78;;;11.40;89.56
19005;BME280;9635;52.078;8.648;2023-05-12T01:50:59;100469.97;;;11.45;89.78
19005;BME280;9635;52.078;8.648;2023-05-12T01:56:02;100473.38;;;11.47;89.67
19005;BME280;9635;52.078;8.648;2023-05-12T02:01:08;100469.13;;;11.44;89.46
19005;BME280;9635;52.078;8.648;2023-05-12T02:06:11;100475.34;;;11.45;89.49
19005;BME280;9635;52.078;8.648;2023-05-12T02:11:14;100477.41;;;11.53;89.76
19005;BME280;9635;52.078;8.648;2023-05-12T02:16:18;100488.75;;;11.56;89.79
19005;BME280;9635;52.078;8.648;2023-05-12T02:21:22;100481.25;;;11.60;89.76
19005;BME280;9635;52.078;8.648;2023-05-12T02:26:27;100483.72;;;11.63;89.74
19005;BME280;9635;52.078;8.648;2023-05-12T02:31:31;100484.69;;;11.62;89.58
19005;BME280;9635;52.078;8.648;2023-05-12T02:36:35;100487.13;;;11.65;89.87
19005;BME280;9635;52.078;8.648;2023-05-12T02:41:39;100488.69;;;11.67;89.87
19005;BME280;9635;52.078;8.648;2023-05-12T02:46:43;100483.47;;;11.66;89.89
19005;BME280;9635;52.078;8.648;2023-05-12T02:51:46;100481.72;;;11.65;89.83
19005;BME280;9635;52.078;8.648;2023-05-12T02:56:50;100483.84;;;11.61;89.64
19005;BME280;9635;52.078;8.648;2023-05-12T03:01:55;100474.91;;;11.61;89.72
19005;BME280;9635;52.078;8.648;2023-05-12T03:06:58;100481.78;;;11.54;89.61
19005;BME280;9635;52.078;8.648;2023-05-12T03:12:01;100483.75;;;11.52;89.56
19005;BME280;9635;52.078;8.648;2023-05-12T03:17:05;100486.22;;;11.43;89.54
19005;BME280;9635;52.078;8.648;2023-05-12T03:22:08;100490.88;;;11.41;89.66
19005;BME280;9635;52.078;8.648;2023-05-12T03:27:11;100489.31;;;11.39;89.67
19005;BME280;9635;52.078;8.648;2023-05-12T03:32:15;100477.81;;;11.37;89.51
19005;BME280;9635;52.078;8.648;2023-05-12T03:37:18;100477.22;;;11.33;89.44
19005;BME280;9635;52.078;8.648;2023-05-12T03:42:23;100477.59;;;11.28;89.37
19005;BME280;9635;52.078;8.648;2023-05-12T03:47:27;100488.25;;;11.30;89.78
19005;BME280;9635;52.078;8.648;2023-05-12T03:52:30;100490.16;;;11.39;90.02
19005;BME280;9635;52.078;8.648;2023-05-12T03:57:35;100496.75;;;11.46;90.06
19005;BME280;9635;52.078;8.648;2023-05-12T04:02:40;100488.28;;;11.51;90.10
19005;BME280;9635;52.078;8.648;2023-05-12T04:07:43;100502.56;;;11.52;89.91
19005;BME280;9635;52.078;8.648;2023-05-12T04:12:46;100504.03;;;11.56;90.09
19005;BME280;9635;52.078;8.648;2023-05-12T04:17:50;100509.28;;;11.57;90.04
19005;BME280;9635;52.078;8.648;2023-05-12T04:22:54;100510.63;;;11.63;90.24
19005;BME280;9635;52.078;8.648;2023-05-12T04:27:57;100516.19;;;11.71;90.37
19005;BME280;9635;52.078;8.648;2023-05-12T04:33:02;100528.91;;;11.80;90.35
19005;BME280;9635;52.078;8.648;2023-05-12T04:38:05;100529.69;;;11.92;90.52
19005;BME280;9635;52.078;8.648;2023-05-12T04:43:08;100535.53;;;11.97;90.53
19005;BME280;9635;52.078;8.648;2023-05-12T04:48:33;100542.38;;;12.01;90.52
19005;BME280;9635;52.078;8.648;2023-05-12T04:53:36;100540.03;;;12.08;90.61
19005;BME280;9635;52.078;8.648;2023-05-12T04:58:39;100544.03;;;12.13;90.34
19005;BME280;9635;52.078;8.648;2023-05-12T05:03:44;100550.16;;;12.15;90.72
19005;BME280;9635;52.078;8.648;2023-05-12T05:08:48;100560.28;;;12.23;90.70
19005;BME280;9635;52.078;8.648;2023-05-12T05:13:51;100573.56;;;12.36;90.93
19005;BME280;9635;52.078;8.648;2023-05-12T05:18:55;100578.75;;;12.49;91.12
19005;BME280;9635;52.078;8.648;2023-05-12T05:23:59;100583.50;;;12.56;90.78
19005;BME280;9635;52.078;8.648;2023-05-12T05:29:03;100588.19;;;12.64;90.80
19005;BME280;9635;52.078;8.648;2023-05-12T05:34:09;100587.97;;;12.67;90.61
19005;BME280;9635;52.078;8.648;2023-05-12T05:39:12;100595.03;;;12.68;90.87
19005;BME280;9635;52.078;8.648;2023-05-12T05:44:15;100601.34;;;12.57;90.47
19005;BME280;9635;52.078;8.648;2023-05-12T05:49:19;100602.59;;;12.74;91.18
19005;BME280;9635;52.078;8.648;2023-05-12T05:54:23;100611.00;;;12.81;90.38
19005;BME280;9635;52.078;8.648;2023-05-12T05:59:26;100622.94;;;12.88;90.03
19005;BME280;9635;52.078;8.648;2023-05-12T06:04:31;100620.44;;;12.96;90.72
19005;BME280;9635;52.078;8.648;2023-05-12T06:09:34;100631.66;;;13.22;90.95
19005;BME280;9635;52.078;8.648;2023-05-12T06:14:37;100646.00;;;13.33;89.40
19005;BME280;9635;52.078;8.648;2023-05-12T06:19:41;100643.00;;;13.26;89.83
19005;BME280;9635;52.078;8.648;2023-05-12T06:24:44;100641.00;;;13.49;90.73
19005;BME280;9635;52.078;8.648;2023-05-12T06:29:47;100651.28;;;13.65;90.68
19005;BME280;9635;52.078;8.648;2023-05-12T06:34:51;100650.88;;;13.79;89.60
19005;BME280;9635;52.078;8.648;2023-05-12T06:39:54;100644.78;;;13.77;90.09
19005;BME280;9635;52.078;8.648;2023-05-12T06:44:58;100647.38;;;14.08;90.29
19005;BME280;9635;52.078;8.648;2023-05-12T06:50:04;100647.13;;;14.21;89.33
19005;BME280;9635;52.078;8.648;2023-05-12T06:55:08;100645.81;;;14.25;88.55
19005;BME280;9635;52.078;8.648;2023-05-12T07:00:12;100652.53;;;14.50;87.31
19005;BME280;9635;52.078;8.648;2023-05-12T07:05:16;100653.22;;;14.81;88.76
19005;BME280;9635;52.078;8.648;2023-05-12T07:10:20;100656.97;;;15.08;87.49
19005;BME280;9635;52.078;8.648;2023-05-12T07:15:23;100645.97;;;15.19;87.67
19005;BME280;9635;52.078;8.648;2023-05-12T07:20:27;100642.56;;;15.54;85.05
19005;BME280;9635;52.078;8.648;2023-05-12T07:25:30;100652.81;;;15.88;85.74
19005;BME280;9635;52.078;8.648;2023-05-12T07:30:33;100649.03;;;16.17;85.36
19005;BME280;9635;52.078;8.648;2023-05-12T07:35:37;100645.78;;;16.49;85.33
19005;BME280;9635;52.078;8.648;2023-05-12T07:40:40;100647.09;;;16.63;82.96
19005;BME280;9635;52.078;8.648;2023-05-12T07:45:43;100646.22;;;17.06;81.12
19005;BME280;9635;52.078;8.648;2023-05-12T07:50:48;100648.75;;;17.34;79.80
19005;BME280;9635;52.078;8.648;2023-05-12T07:55:51;100642.44;;;17.67;78.73
19005;BME280;9635;52.078;8.648;2023-05-12T08:00:54;100643.91;;;18.04;76.95
19005;BME280;9635;52.078;8.648;2023-05-12T08:06:00;100645.69;;;18.46;77.91
19005;BME280;9635;52.078;8.648;2023-05-12T08:11:04;100635.31;;;18.50;70.63
19005;BME280;9635;52.078;8.648;2023-05-12T08:16:07;100645.34;;;18.57;72.41
19005;BME280;9635;52.078;8.648;2023-05-12T08:21:11;100642.44;;;18.67;72.59
19005;BME280;9635;52.078;8.648;2023-05-12T08:26:14;100640.75;;;18.58;71.59
19005;BME280;9635;52.078;8.648;2023-05-12T08:31:17;100634.63;;;18.89;75.06
19005;BME280;9635;52.078;8.648;2023-05-12T08:36:22;100638.47;;;19.11;74.81
19005;BME280;9635;52.078;8.648;2023-05-12T08:41:33;100635.59;;;19.20;70.93
19005;BME280;9635;52.078;8.648;2023-05-12T08:46:38;100641.94;;;19.44;74.65
19005;BME280;9635;52.078;8.648;2023-05-12T08:51:44;100641.91;;;19.52;72.06
19005;BME280;9635;52.078;8.648;2023-05-12T08:56:59;100649.97;;;19.45;70.92
19005;BME280;9635;52.078;8.648;2023-05-12T09:02:08;100646.13;;;20.02;68.23
19005;BME280;9635;52.078;8.648;2023-05-12T09:07:13;100631.81;;;20.69;69.26
19005;BME280;9635;52.078;8.648;2023-05-12T09:12:17;100622.94;;;20.90;64.23
19005;BME280;9635;52.078;8.648;2023-05-12T09:17:21;100628.25;;;21.21;62.81
19005;BME280;9635;52.078;8.648;2023-05-12T09:22:29;100634.94;;;21.19;60.44
19005;BME280;9635;52.078;8.648;2023-05-12T09:27:32;100632.53;;;21.60;61.02
19005;BME280;9635;52.078;8.648;2023-05-12T09:32:35;100631.50;;;21.76;61.23
19005;BME280;9635;52.078;8.648;2023-05-12T09:37:39;100638.06;;;22.40;60.71
19005;BME280;9635;52.078;8.648;2023-05-12T09:42:42;100631.25;;;22.72;50.98
19005;BME280;9635;52.078;8.648;2023-05-12T09:47:45;100631.34;;;22.85;54.44
19005;BME280;9635;52.078;8.648;2023-05-12T09:52:49;100637.13;;;22.47;51.78
19005;BME280;9635;52.078;8.648;2023-05-12T09:57:53;100637.81;;;22.13;48.91
19005;BME280;9635;52.078;8.648;2023-05-12T10:02:57;100640.72;;;22.48;54.39
19005;BME280;9635;52.078;8.648;2023-05-12T10:08:03;100645.66;;;22.59;50.05
19005;BME280;9635;52.078;8.648;2023-05-12T10:13:08;100639.94;;;23.10;52.26
19005;BME280;9635;52.078;8.648;2023-05-12T10:18:15;100643.41;;;23.19;47.46
19005;BME280;9635;52.078;8.648;2023-05-12T10:23:19;100645.38;;;22.75;45.45
19005;BME280;9635;52.078;8.648;2023-05-12T10:28:22;100641.97;;;22.73;45.45
19005;BME280;9635;52.078;8.648;2023-05-12T10:33:25;100633.56;;;22.75;45.42
19005;BME280;9635;52.078;8.648;2023-05-12T10:38:35;100631.44;;;23.27;45.65
19005;BME280;9635;52.078;8.648;2023-05-12T10:43:39;100638.53;;;24.04;46.90
19005;BME280;9635;52.078;8.648;2023-05-12T10:48:52;100634.72;;;23.98;46.43
19005;BME280;9635;52.078;8.648;2023-05-12T10:53:58;100642.38;;;24.23;45.68
19005;BME280;9635;52.078;8.648;2023-05-12T10:59:05;100640.31;;;24.45;50.48
19005;BME280;9635;52.078;8.648;2023-05-12T11:04:13;100633.34;;;24.49;42.82
19005;BME280;9635;52.078;8.648;2023-05-12T11:09:18;100630.25;;;23.84;45.73
19005;BME280;9635;52.078;8.648;2023-05-12T11:14:23;100633.03;;;24.04;43.71
19005;BME280;9635;52.078;8.648;2023-05-12T11:19:26;100629.13;;;24.40;41.86
19005;BME280;9635;52.078;8.648;2023-05-12T11:24:30;100619.59;;;24.89;40.58
19005;BME280;9635;52.078;8.648;2023-05-12T11:29:33;100625.56;;;25.71;42.31
19005;BME280;9635;52.078;8.648;2023-05-12T11:34:36;100623.53;;;25.98;39.02
19005;BME280;9635;52.078;8.648;2023-05-12T11:39:41;100626.28;;;25.91;39.13
19005;BME280;9635;52.078;8.648;2023-05-12T11:44:47;100631.72;;;25.59;36.87
19005;BME280;9635;52.078;8.648;2023-05-12T11:49:52;100630.81;;;24.94;34.67
19005;BME280;9635;52.078;8.648;2023-05-12T11:54:58;100629.81;;;25.53;33.38
19005;BME280;9635;52.078;8.648;2023-05-12T12:00:03;100625.44;;;25.46;32.81
19005;BME280;9635;52.078;8.648;2023-05-12T12:05:15;100637.16;;;24.81;34.63
19005;BME280;9635;52.078;8.648;2023-05-12T12:10:20;100636.06;;;25.02;33.80
19005;BME280;9635;52.078;8.648;2023-05-12T12:15:23;100633.34;;;23.26;34.18
19005;BME280;9635;52.078;8.648;2023-05-12T12:20:26;100635.84;;;24.37;34.35
19005;BME280;9635;52.078;8.648;2023-05-12T12:25:30;100635.66;;;24.65;33.19
19005;BME280;9635;52.078;8.648;2023-05-12T12:30:33;100627.69;;;25.69;32.37
19005;BME280;9635;52.078;8.648;2023-05-12T12:35:36;100630.84;;;26.11;32.52
19005;BME280;9635;52.078;8.648;2023-05-12T12:40:40;100627.63;;;25.82;30.83
19005;BME280;9635;52.078;8.648;2023-05-12T12:45:43;100633.56;;;24.54;33.02
19005;BME280;9635;52.078;8.648;2023-05-12T12:50:46;100621.72;;;24.93;33.14
19005;BME280;9635;52.078;8.648;2023-05-12T12:55:50;100611.69;;;25.46;30.50
19005;BME280;9635;52.078;8.648;2023-05-12T13:00:53;100629.41;;;23.83;33.12
19005;BME280;9635;52.078;8.648;2023-05-12T13:05:56;100639.28;;;23.08;34.56
19005;BME280;9635;52.078;8.648;2023-05-12T13:11:00;100635.88;;;24.50;33.14
19005;BME280;9635;52.078;8.648;2023-05-12T13:16:04;100624.81;;;26.34;31.81
19005;BME280;9635;52.078;8.648;2023-05-12T13:21:06;100622.34;;;27.19;31.36
19005;BME280;9635;52.078;8.648;2023-05-12T13:26:10;100625.31;;;26.49;29.33
19005;BME280;9635;52.078;8.648;2023-05-12T13:31:15;100614.53;;;27.16;27.54
19005;BME280;9635;52.078;8.648;2023-05-12T13:36:18;100618.28;;;26.53;27.14
19005;BME280;9635;52.078;8.648;2023-05-12T13:41:23;100621.69;;;26.55;28.05
19005;BME280;9635;52.078;8.648;2023-05-12T13:46:25;100614.75;;;26.46;26.96
19005;BME280;9635;52.078;8.648;2023-05-12T13:51:28;100615.19;;;25.73;28.61
19005;BME280;9635;52.078;8.648;2023-05-12T13:56:34;100613.69;;;24.79;29.18
19005;BME280;9635;52.078;8.648;2023-05-12T14:01:38;100608.41;;;24.30;30.86
19005;BME280;9635;52.078;8.648;2023-05-12T14:06:41;100609.91;;;24.80;31.77
19005;BME280;9635;52.078;8.648;2023-05-12T14:11:45;100607.13;;;25.13;31.27
19005;BME280;9635;52.078;8.648;2023-05-12T14:16:48;100610.16;;;25.50;31.11
19005;BME280;9635;52.078;8.648;2023-05-12T14:21:51;100593.84;;;26.63;30.15
19005;BME280;9635;52.078;8.648;2023-05-12T14:26:55;100595.13;;;26.61;30.17
19005;BME280;9635;52.078;8.648;2023-05-12T14:31:58;100607.47;;;26.26;29.69
19005;BME280;9635;52.078;8.648;2023-05-12T14:37:03;100611.38;;;26.12;29.70
19005;BME280;9635;52.078;8.648;2023-05-12T14:42:08;100615.09;;;25.86;30.01
19005;BME280;9635;52.078;8.648;2023-05-12T14:47:11;100621.03;;;25.90;30.71
19005;BME280;9635;52.078;8.648;2023-05-12T14:52:14;100611.19;;;26.07;30.86
19005;BME280;9635;52.078;8.648;2023-05-12T14:57:18;100610.91;;;26.15;30.41
19005;BME280;9635;52.078;8.648;2023-05-12T15:02:22;100605.03;;;26.93;30.51
19005;BME280;9635;52.078;8.648;2023-05-12T15:07:25;100612.09;;;27.63;30.13
19005;BME280;9635;52.078;8.648;2023-05-12T15:12:29;100609.25;;;27.70;29.46
19005;BME280;9635;52.078;8.648;2023-05-12T15:17:32;100608.50;;;25.42;30.07
19005;BME280;9635;52.078;8.648;2023-05-12T15:22:35;100603.75;;;24.91;31.33
19005;BME280;9635;52.078;8.648;2023-05-12T15:27:39;100601.88;;;26.65;30.27
19005;BME280;9635;52.078;8.648;2023-05-12T15:32:42;100600.03;;;26.59;29.47
19005;BME280;9635;52.078;8.648;2023-05-12T15:37:45;100605.56;;;25.89;30.50
19005;BME280;9635;52.078;8.648;2023-05-12T15:42:49;100622.94;;;24.24;31.56
19005;BME280;9635;52.078;8.648;2023-05-12T15:47:52;100623.34;;;23.53;32.24
19005;BME280;9635;52.078;8.648;2023-05-12T15:52:56;100625.06;;;22.91;33.01
19005;BME280;9635;52.078;8.648;2023-05-12T15:58:01;100617.78;;;23.05;32.96
19005;BME280;9635;52.078;8.648;2023-05-12T16:03:04;100622.44;;;23.81;32.92
19005;BME280;9635;52.078;8.648;2023-05-12T16:08:07;100610.66;;;24.00;32.81
19005;BME280;9635;52.078;8.648;2023-05-12T16:13:12;100612.22;;;24.56;32.30
19005;BME280;9635;52.078;8.648;2023-05-12T16:18:15;100614.09;;;24.89;28.96
19005;BME280;9635;52.078;8.648;2023-05-12T16:23:18;100608.81;;;24.94;28.51
19005;BME280;9635;52.078;8.648;2023-05-12T16:28:22;100599.97;;;24.59;28.92
19005;BME280;9635;52.078;8.648;2023-05-12T16:33:25;100604.78;;;25.16;29.59
19005;BME280;9635;52.078;8.648;2023-05-12T16:38:28;100600.44;;;25.54;29.13
19005;BME280;9635;52.078;8.648;2023-05-12T16:43:34;100599.84;;;25.90;28.52
19005;BME280;9635;52.078;8.648;2023-05-12T16:48:38;100599.13;;;25.63;28.62
19005;BME280;9635;52.078;8.648;2023-05-12T16:53:40;100593.47;;;27.58;26.22
19005;BME280;9635;52.078;8.648;2023-05-12T16:58:45;100584.53;;;31.33;23.03
19005;BME280;9635;52.078;8.648;2023-05-12T17:03:47;100597.78;;;32.89;20.73
19005;BME280;9635;52.078;8.648;2023-05-12T17:08:51;100586.41;;;33.53;21.21
19005;BME280;9635;52.078;8.648;2023-05-12T17:19:32;100593.88;;;33.32;19.68
19005;BME280;9635;52.078;8.648;2023-05-12T17:24:35;100598.16;;;32.65;20.59
19005;BME280;9635;52.078;8.648;2023-05-12T17:29:38;100602.13;;;32.15;21.08
19005;BME280;9635;52.078;8.648;2023-05-12T17:34:42;100599.84;;;32.66;20.76
19005;BME280;9635;52.078;8.648;2023-05-12T17:39:45;100604.38;;;29.90;23.35
19005;BME280;9635;52.078;8.648;2023-05-12T17:44:47;100610.31;;;28.94;23.90
19005;BME280;9635;52.078;8.648;2023-05-12T17:49:52;100623.19;;;28.35;24.71
19005;BME280;9635;52.078;8.648;2023-05-12T17:54:54;100629.16;;;27.90;25.46
19005;BME280;9635;52.078;8.648;2023-05-12T17:59:57;100628.47;;;24.97;27.89
19005;BME280;9635;52.078;8.648;2023-05-12T18:05:02;100636.91;;;22.98;31.14
19005;BME280;9635;52.078;8.648;2023-05-12T18:10:06;100650.38;;;22.07;32.63
19005;BME280;9635;52.078;8.648;2023-05-12T18:15:10;100641.88;;;21.51;33.19
19005;BME280;9635;52.078;8.648;2023-05-12T18:20:14;100652.25;;;21.11;33.84
19005;BME280;9635;52.078;8.648;2023-05-12T18:25:18;100653.59;;;20.77;34.12
19005;BME280;9635;52.078;8.648;2023-05-12T18:30:21;100653.97;;;20.51;34.38
19005;BME280;9635;52.078;8.648;2023-05-12T18:35:25;100658.22;;;20.31;35.02
19005;BME280;9635;52.078;8.648;2023-05-12T18:40:28;100661.09;;;20.06;35.34
19005;BME280;9635;52.078;8.648;2023-05-12T18:45:31;100666.84;;;19.88;35.89
19005;BME280;9635;52.078;8.648;2023-05-12T18:50:35;100669.31;;;19.67;36.41
19005;BME280;9635;52.078;8.648;2023-05-12T18:55:38;100681.81;;;19.45;37.30
19005;BME280;9635;52.078;8.648;2023-05-12T19:00:41;100678.31;;;19.20;39.51
19005;BME280;9635;52.078;8.648;2023-05-12T19:05:45;100681.91;;;19.04;40.72
19005;BME280;9635;52.078;8.648;2023-05-12T19:10:49;100683.47;;;18.90;41.21
19005;BME280;9635;52.078;8.648;2023-05-12T19:15:52;100686.50;;;18.71;40.52
19005;BME280;9635;52.078;8.648;2023-05-12T19:20:56;100696.19;;;18.57;40.04
19005;BME280;9635;52.078;8.648;2023-05-12T19:25:59;100698.00;;;18.40;40.49
19005;BME280;9635;52.078;8.648;2023-05-12T19:31:02;100695.97;;;18.26;40.56
19005;BME280;9635;52.078;8.648;2023-05-12T19:36:07;100714.13;;;18.17;41.67
19005;BME280;9635;52.078;8.648;2023-05-12T19:41:11;100704.69;;;17.95;41.92
19005;BME280;9635;52.078;8.648;2023-05-12T19:46:14;100712.59;;;17.72;42.33
19005;BME280;9635;52.078;8.648;2023-05-12T19:51:18;100708.22;;;17.45;43.01
19005;BME280;9635;52.078;8.648;2023-05-12T19:56:21;100730.13;;;17.17;42.99
19005;BME280;9635;52.078;8.648;2023-05-12T20:01:24;100728.56;;;17.15;43.44
19005;BME280;9635;52.078;8.648;2023-05-12T20:06:29;100725.69;;;16.98;43.77
19005;BME280;9635;52.078;8.648;2023-05-12T20:11:32;100735.31;;;16.93;44.45
19005;BME280;9635;52.078;8.648;2023-05-12T20:16:35;100730.81;;;16.84;44.13
19005;BME280;9635;52.078;8.648;2023-05-12T20:21:40;100740.44;;;16.78;44.05
19005;BME280;9635;52.078;8.648;2023-05-12T20:26:43;100738.75;;;16.77;44.25
19005;BME280;9635;52.078;8.648;2023-05-12T20:31:46;100738.34;;;16.72;43.91
19005;BME280;9635;52.078;8.648;2023-05-12T20:36:50;100736.09;;;16.67;44.08
19005;BME280;9635;52.078;8.648;2023-05-12T20:41:53;100737.34;;;16.73;43.91
19005;BME280;9635;52.078;8.648;2023-05-12T20:46:56;100739.97;;;16.65;44.56
19005;BME280;9635;52.078;8.648;2023-05-12T20:52:01;100750.81;;;16.65;44.92
19005;BME280;9635;52.078;8.648;2023-05-12T20:57:04;100750.53;;;16.50;45.39
19005;BME280;9635;52.078;8.648;2023-05-12T21:02:07;100758.03;;;16.38;45.59
19005;BME280;9635;52.078;8.648;2023-05-12T21:07:12;100757.66;;;16.23;46.02
19005;BME280;9635;52.078;8.648;2023-05-12T21:12:15;100752.09;;;16.25;46.17
19005;BME280;9635;52.078;8.648;2023-05-12T21:17:18;100756.97;;;16.21;46.71
19005;BME280;9635;52.078;8.648;2023-05-12T21:22:22;100762.44;;;16.11;46.64
19005;BME280;9635;52.078;8.648;2023-05-12T21:27:25;100763.75;;;16.07;47.00
19005;BME280;9635;52.078;8.648;2023-05-12T21:32:28;100770.03;;;16.08;46.96
19005;BME280;9635;52.078;8.648;2023-05-12T21:37:32;100774.50;;;15.99;47.33
19005;BME280;9635;52.078;8.648;2023-05-12T21:42:35;100777.09;;;15.91;47.29
19005;BME280;9635;52.078;8.648;2023-05-12T21:47:38;100777.44;;;15.78;47.88
19005;BME280;9635;52.078;8.648;2023-05-12T21:52:42;100772.44;;;15.74;48.09
19005;BME280;9635;52.078;8.648;2023-05-12T21:57:45;100777.19;;;15.72;48.27
19005;BME280;9635;52.078;8.648;2023-05-12T22:02:48;100778.06;;;15.62;48.71
19005;BME280;9635;52.078;8.648;2023-05-12T22:07:53;100774.53;;;15.52;49.30
19005;BME280;9635;52.078;8.648;2023-05-12T22:12:56;100777.53;;;15.49;49.08
19005;BME280;9635;52.078;8.648;2023-05-12T22:17:59;100776.25;;;15.34;49.98
19005;BME280;9635;52.078;8.648;2023-05-12T22:23:03;100779.84;;;15.34;49.18
19005;BME280;9635;52.078;8.648;2023-05-12T22:28:06;100791.53;;;15.35;49.50
19005;BME280;9635;52.078;8.648;2023-05-12T22:33:09;100798.66;;;14.97;50.13
19005;BME280;9635;52.078;8.648;2023-05-12T22:38:13;100796.53;;;14.91;50.68
19005;BME280;9635;52.078;8.648;2023-05-12T22:43:15;100799.22;;;14.91;50.21
19005;BME280;9635;52.078;8.648;2023-05-12T22:48:18;100794.69;;;14.81;50.78
19005;BME280;9635;52.078;8.648;2023-05-12T22:53:22;100795.94;;;14.58;51.52
19005;BME280;9635;52.078;8.648;2023-05-12T22:58:25;100799.63;;;14.47;51.31
19005;BME280;9635;52.078;8.648;2023-05-12T23:03:28;100800.06;;;14.52;51.18
19005;BME280;9635;52.078;8.648;2023-05-12T23:08:32;100804.22;;;14.56;51.05
19005;BME280;9635;52.078;8.648;2023-05-12T23:13:35;100797.50;;;14.60;50.65
19005;BME280;9635;52.078;8.648;2023-05-12T23:18:38;100797.22;;;14.64;50.73
19005;BME280;9635;52.078;8.648;2023-05-12T23:23:42;100805.47;;;14.43;51.32
19005;BME280;9635;52.078;8.648;2023-05-12T23:28:44;100799.06;;;14.44;51.15
19005;BME280;9635;52.078;8.648;2023-05-12T23:33:47;100781.53;;;14.38;51.58
19005;BME280;9635;52.078;8.648;2023-05-12T23:38:51;100788.56;;;14.20;51.67
19005;BME280;9635;52.078;8.648;2023-05-12T23:43:55;100784.69;;;14.03;53.30
19005;BME280;9635;52.078;8.648;2023-05-12T23:48:58;100781.06;;;13.83;53.46
19005;BME280;9635;52.078;8.648;2023-05-12T23:54:02;100777.88;;;13.68;53.87
19005;BME280;9635;52.078;8.648;2023-05-12T23:59:05;100774.28;;;13.58;53.84
